logo
Search for airport 
image banner adimage banner adimage banner ad
image banner ad

HKBL - Balesa

Located in , Kenya

ICAO - , IATA -

Data provided by Airmate  

General information

Coordinates: N3°38'49" E37°21'3"
Elevation is 2000 feet MSL.
Magnetic variation is 2° East
View others Airports in Eastern Province

Operational data

Special qualification required
Current time UTC:
Current local time:
Weather at : - ( 0 km )
METAR: SULS 230522Z 04003KT 360V090 6000 TSRA OVC030 //////CB 20/19 Q1010
View NOTAMs / SUP AIP / TFR affecting this airport [VIEW]
Communications frequencies: [VIEW]

Runways:

RWY identifierQFULength (ft)Width (ft)SurfaceLDA (ft)
1000UNK
2800UNK

Airport contact information

Address: Kenya

Satellite view of HKBL